createdAt,value
2019-05-09T00:00:29.286Z,99376.72
2019-05-09T00:00:53.931Z,99373.15
2019-05-09T00:01:18.526Z,99371.44
2019-05-09T00:01:43.907Z,99372.97
2019-05-09T00:02:10.289Z,99374.64
2019-05-09T00:02:36.511Z,99371.25
2019-05-09T00:03:03.419Z,99370.40
2019-05-09T00:03:30.285Z,99366.34
2019-05-09T00:03:54.442Z,99370.04
2019-05-09T00:04:19.109Z,99374.11
2019-05-09T00:04:44.116Z,99373.42
2019-05-09T00:05:09.049Z,99376.98
2019-05-09T00:05:33.713Z,99378.34
2019-05-09T00:05:58.327Z,99375.77
2019-05-09T00:06:23.951Z,99377.63
2019-05-09T00:06:48.679Z,99375.41
2019-05-09T00:07:14.150Z,99378.13
2019-05-09T00:07:38.799Z,99376.08
2019-05-09T00:08:03.665Z,99375.09
2019-05-09T00:08:28.437Z,99376.08
2019-05-09T00:08:53.369Z,99373.52
2019-05-09T00:09:18.193Z,99375.23
2019-05-09T00:09:44.084Z,99375.73
2019-05-09T00:10:10.063Z,99380.28
2019-05-09T00:10:39.564Z,99379.92
2019-05-09T00:11:01.048Z,99377.75
2019-05-09T00:11:25.681Z,99379.10
2019-05-09T00:11:50.261Z,99379.10
2019-05-09T00:12:14.900Z,99376.04
2019-05-09T00:12:39.481Z,99377.75
2019-05-09T00:13:04.293Z,99379.59
2019-05-09T00:13:29.117Z,99380.45
2019-05-09T00:13:53.960Z,99378.75
2019-05-09T00:14:18.837Z,99381.45
2019-05-09T00:14:43.531Z,99384.16
2019-05-09T00:15:08.243Z,99380.23
2019-05-09T00:15:33.362Z,99381.09
2019-05-09T00:15:58.120Z,99384.66
2019-05-09T00:16:23.517Z,99382.81
2019-05-09T00:16:48.506Z,99380.95
2019-05-09T00:17:14.297Z,99379.59
2019-05-09T00:17:38.855Z,99382.81
2019-05-09T00:18:04.010Z,99376.04
2019-05-09T00:18:28.750Z,99383.30
2019-05-09T00:18:54.247Z,99388.22
2019-05-09T00:19:19.047Z,99388.72
2019-05-09T00:19:43.984Z,99388.22
2019-05-09T00:20:10.790Z,99386.87
2019-05-09T00:20:37.070Z,99383.80
2019-05-09T00:21:23.907Z,99383.80
2019-05-09T00:21:50.224Z,99384.80
2019-05-09T00:22:14.928Z,99392.06
2019-05-09T00:22:39.507Z,99383.94
2019-05-09T00:23:04.251Z,99384.61
2019-05-09T00:23:28.862Z,99385.11
2019-05-09T00:23:54.123Z,99383.75
2019-05-09T00:24:18.929Z,99383.40
2019-05-09T00:24:44.701Z,99383.40
2019-05-09T00:25:09.539Z,99384.42
2019-05-09T00:25:34.169Z,99386.96
2019-05-09T00:25:58.798Z,99381.72
2019-05-09T00:26:23.669Z,99382.71
2019-05-09T00:26:48.498Z,99382.71
2019-05-09T00:27:14.333Z,99382.71
2019-05-09T00:27:39.053Z,99385.25
2019-05-09T00:28:04.279Z,99386.28
2019-05-09T00:28:33.767Z,99384.42
2019-05-09T00:29:17.134Z,99386.77
2019-05-09T00:29:46.119Z,99377.30
2019-05-09T00:30:10.896Z,99383.34
2019-05-09T00:30:55.515Z,99386.59
2019-05-09T00:31:23.793Z,99381.31
2019-05-09T00:32:03.487Z,99381.95
2019-05-09T00:32:34.050Z,99381.63
2019-05-09T00:32:58.861Z,99385.33
2019-05-09T00:33:30.902Z,99375.13
2019-05-09T00:33:57.167Z,99378.01
2019-05-09T00:34:29.454Z,99372.73
2019-05-09T00:34:55.792Z,99379.31
2019-05-09T00:35:24.778Z,99371.69
2019-05-09T00:35:49.429Z,99375.39
2019-05-09T00:36:14.156Z,99374.03
2019-05-09T00:36:38.748Z,99369.62
2019-05-09T00:37:03.346Z,99372.00
2019-05-09T00:37:45.587Z,99374.70
2019-05-09T00:38:10.187Z,99375.70
2019-05-09T00:38:46.954Z,99378.91
2019-05-09T00:39:13.409Z,99383.45
2019-05-09T00:39:37.908Z,99387.16
2019-05-09T00:40:04.060Z,99381.75
2019-05-09T00:40:28.841Z,99377.69
2019-05-09T00:40:58.665Z,99373.30
2019-05-09T00:41:19.790Z,99376.33
2019-05-09T00:41:44.408Z,99380.39
2019-05-09T00:42:09.041Z,99377.86
2019-05-09T00:42:33.754Z,99380.06
2019-05-09T00:42:58.368Z,99389.18
2019-05-09T00:43:23.807Z,99378.49
2019-05-09T00:43:56.172Z,99377.50
2019-05-09T00:44:23.249Z,99379.70
2019-05-09T00:44:49.546Z,99383.08
2019-05-09T00:45:15.801Z,99372.26
2019-05-09T00:45:58.210Z,99381.73
2019-05-09T00:46:24.511Z,99378.66
2019-05-09T00:46:53.647Z,99382.72
2019-05-09T00:47:19.893Z,99376.45
2019-05-09T00:47:44.546Z,99387.41
2019-05-09T00:48:09.392Z,99383.03
2019-05-09T00:48:53.914Z,99387.09
2019-05-09T00:49:20.165Z,99383.03
2019-05-09T00:49:44.784Z,99383.13
2019-05-09T00:50:09.413Z,99383.63
2019-05-09T00:50:34.246Z,99384.98
2019-05-09T00:50:58.954Z,99388.69
2019-05-09T00:51:23.598Z,99384.30
2019-05-09T00:51:48.172Z,99387.33
2019-05-09T00:52:14.119Z,99384.30
2019-05-09T00:52:38.962Z,99384.30
2019-05-09T00:53:03.582Z,99382.58
2019-05-09T00:53:28.192Z,99384.30
2019-05-09T00:53:53.709Z,99385.65
2019-05-09T00:54:18.423Z,99380.73
2019-05-09T00:54:43.823Z,99382.94
2019-05-09T00:55:08.535Z,99382.09
2019-05-09T00:55:33.381Z,99382.58
2019-05-09T00:55:58.042Z,99378.03
2019-05-09T00:56:23.975Z,99382.09
2019-05-09T00:56:48.928Z,99375.81
2019-05-09T00:57:15.854Z,99379.02
2019-05-09T00:57:40.518Z,99379.52
2019-05-09T00:58:05.161Z,99382.58
2019-05-09T00:58:29.799Z,99377.17
2019-05-09T00:58:54.420Z,99377.17
2019-05-09T00:59:19.044Z,99372.26
2019-05-09T00:59:44.649Z,99373.11
2019-05-09T01:00:14.671Z,99371.89
2019-05-09T01:00:38.175Z,99373.61
2019-05-09T01:01:04.343Z,99375.95
2019-05-09T01:01:29.332Z,99374.11
2019-05-09T01:01:54.419Z,99374.97
2019-05-09T01:02:19.264Z,99375.95
2019-05-09T01:02:43.878Z,99376.81
2019-05-09T01:03:08.515Z,99374.60
2019-05-09T01:03:33.964Z,99376.81
2019-05-09T01:03:58.844Z,99374.97
2019-05-09T01:04:24.268Z,99378.52
2019-05-09T01:04:48.926Z,99378.52
2019-05-09T01:05:14.458Z,99377.17
2019-05-09T01:05:39.064Z,99371.76
2019-05-09T01:06:04.501Z,99374.97
2019-05-09T01:06:29.720Z,99375.46
2019-05-09T01:06:54.421Z,99376.81
2019-05-09T01:07:19.068Z,99375.81
2019-05-09T01:07:43.710Z,99377.31
2019-05-09T01:08:08.337Z,99380.88
2019-05-09T01:08:33.613Z,99379.52
2019-05-09T01:08:58.844Z,99376.81
2019-05-09T01:09:24.183Z,99375.46
2019-05-09T01:09:49.112Z,99375.46
2019-05-09T01:10:14.428Z,99371.89
2019-05-09T01:10:39.012Z,99372.75
2019-05-09T01:11:11.378Z,99375.10
2019-05-09T01:11:30.087Z,99374.11
2019-05-09T01:11:54.701Z,99376.81
2019-05-09T01:12:19.326Z,99372.39
2019-05-09T01:12:43.950Z,99371.04
2019-05-09T01:13:08.580Z,99374.60
2019-05-09T01:13:34.322Z,99377.80
2019-05-09T01:13:59.127Z,99373.42
2019-05-09T01:14:23.871Z,99374.77
2019-05-09T01:14:48.981Z,99379.66
2019-05-09T01:15:14.893Z,99380.19
2019-05-09T01:15:39.527Z,99379.82
2019-05-09T01:16:04.746Z,99375.77
2019-05-09T01:16:29.629Z,99379.95
2019-05-09T01:16:54.261Z,99377.61
2019-05-09T01:17:19.131Z,99379.82
2019-05-09T01:17:44.228Z,99381.17
2019-05-09T01:18:08.897Z,99383.39
2019-05-09T01:18:34.494Z,99389.30
2019-05-09T01:18:59.130Z,99390.15
2019-05-09T01:19:23.785Z,99385.23
2019-05-09T01:19:48.395Z,99387.58
2019-05-09T01:20:14.728Z,99387.94
2019-05-09T01:20:39.411Z,99387.94
2019-05-09T01:21:04.846Z,99386.23
2019-05-09T01:21:29.533Z,99390.64
2019-05-09T01:21:54.362Z,99379.46
2019-05-09T01:22:18.991Z,99386.72
2019-05-09T01:22:43.744Z,99386.23
2019-05-09T01:23:08.447Z,99383.66
2019-05-09T01:23:34.360Z,99383.66
2019-05-09T01:23:59.362Z,99383.66
2019-05-09T01:24:23.979Z,99386.23
2019-05-09T01:24:48.591Z,99377.75
2019-05-09T01:25:13.492Z,99385.87
2019-05-09T01:25:38.263Z,99376.89
2019-05-09T01:26:03.818Z,99375.05
2019-05-09T01:26:28.771Z,99379.10
2019-05-09T01:26:54.181Z,99374.36
2019-05-09T01:27:19.157Z,99381.13
2019-05-09T01:27:43.754Z,99375.71
2019-05-09T01:28:08.409Z,99377.06
2019-05-09T01:28:33.953Z,99378.41
2019-05-09T01:28:58.806Z,99381.98
2019-05-09T01:29:23.554Z,99382.47
2019-05-09T01:29:48.388Z,99376.70
2019-05-09T01:30:13.646Z,99380.12
2019-05-09T01:30:38.306Z,99375.71
2019-05-09T01:31:04.138Z,99377.06
2019-05-09T01:31:29.060Z,99379.77
2019-05-09T01:31:55.285Z,99378.05
2019-05-09T01:32:37.111Z,99380.77
2019-05-09T01:33:06.183Z,99379.41
2019-05-09T01:33:33.301Z,99380.08
2019-05-09T01:34:13.343Z,99378.72
2019-05-09T01:34:38.080Z,99383.77
2019-05-09T01:35:03.881Z,99379.00
2019-05-09T01:35:28.617Z,99385.06
2019-05-09T01:35:54.069Z,99381.86
2019-05-09T01:36:18.762Z,99377.31
2019-05-09T01:37:03.437Z,99382.72
2019-05-09T01:37:27.708Z,99379.30
2019-05-09T01:37:53.909Z,99382.00
2019-05-09T01:38:18.790Z,99378.80
2019-05-09T01:38:43.486Z,99382.86
2019-05-09T01:39:08.078Z,99383.36
2019-05-09T01:39:33.850Z,99387.91
2019-05-09T01:39:58.563Z,99385.20
2019-05-09T01:40:23.890Z,99384.34
2019-05-09T01:40:48.637Z,99382.99
2019-05-09T01:41:27.150Z,99385.70
2019-05-09T01:41:39.551Z,99386.55
2019-05-09T01:42:04.274Z,99385.56
2019-05-09T01:42:28.894Z,99390.12
2019-05-09T01:42:53.858Z,99385.20
2019-05-09T01:43:18.643Z,99393.81
2019-05-09T01:43:44.291Z,99387.91
2019-05-09T01:44:09.714Z,99384.70
2019-05-09T01:44:34.312Z,99387.91
2019-05-09T01:44:59.005Z,99386.55
2019-05-09T01:45:25.251Z,99388.77
2019-05-09T01:45:49.887Z,99388.41
2019-05-09T01:46:14.628Z,99394.67
2019-05-09T01:46:40.156Z,99391.11
2019-05-09T01:47:04.862Z,99392.83
2019-05-09T01:47:29.481Z,99392.83
2019-05-09T01:47:54.045Z,99391.47
2019-05-09T01:48:18.763Z,99386.55
2019-05-09T01:48:43.389Z,99392.83
2019-05-09T01:49:08.177Z,99396.88
2019-05-09T01:49:34.199Z,99391.47
2019-05-09T01:49:59.235Z,99390.12
2019-05-09T01:50:23.861Z,99394.67
2019-05-09T01:50:48.465Z,99391.64
2019-05-09T01:51:14.473Z,99394.17
2019-05-09T01:51:39.187Z,99393.81
2019-05-09T01:52:04.265Z,99393.32
2019-05-09T01:52:28.872Z,99391.47
2019-05-09T01:52:53.506Z,99393.32
2019-05-09T01:53:19.749Z,99392.46
2019-05-09T01:53:46.018Z,99398.23
2019-05-09T01:54:10.633Z,99394.17
2019-05-09T01:54:36.284Z,99400.58
2019-05-09T01:55:00.975Z,99397.05
2019-05-09T01:55:43.779Z,99390.42
2019-05-09T01:56:08.395Z,99394.48
2019-05-09T01:56:33.911Z,99397.67
2019-05-09T01:56:58.622Z,99396.82
2019-05-09T01:57:23.378Z,99392.77
2019-05-09T01:57:48.128Z,99396.82
2019-05-09T01:58:13.862Z,99398.17
2019-05-09T01:58:38.662Z,99396.46
2019-05-09T01:59:03.486Z,99397.81
2019-05-09T01:59:28.093Z,99397.81
2019-05-09T01:59:53.225Z,99396.13
2019-05-09T02:00:18.121Z,99394.78
2019-05-09T02:00:43.600Z,99397.48
2019-05-09T02:01:09.205Z,99393.27
2019-05-09T02:01:34.467Z,99398.67
2019-05-09T02:01:59.192Z,99393.42
2019-05-09T02:02:24.023Z,99394.78
2019-05-09T02:02:48.677Z,99396.63
2019-05-09T02:03:13.989Z,99400.19
2019-05-09T02:03:38.775Z,99392.70
2019-05-09T02:04:04.050Z,99397.98
2019-05-09T02:04:28.893Z,99394.91
2019-05-09T02:04:53.517Z,99399.47
2019-05-09T02:05:18.182Z,99399.47
2019-05-09T02:05:43.490Z,99401.18
2019-05-09T02:06:08.203Z,99392.70
2019-05-09T02:06:33.353Z,99400.82
2019-05-09T02:06:58.057Z,99396.77
2019-05-09T02:07:23.747Z,99398.12
2019-05-09T02:07:48.448Z,99393.07
2019-05-09T02:08:14.241Z,99395.77
2019-05-09T02:08:39.147Z,99395.77
2019-05-09T02:09:05.413Z,99394.42
2019-05-09T02:09:30.017Z,99395.77
2019-05-09T02:09:54.741Z,99396.63
2019-05-09T02:10:19.379Z,99393.92
2019-05-09T02:10:44.249Z,99393.07
2019-05-09T02:11:08.974Z,99398.97
2019-05-09T02:11:42.352Z,99393.07
2019-05-09T02:11:59.946Z,99401.18
2019-05-09T02:12:24.689Z,99394.42
2019-05-09T02:12:49.388Z,99390.36
2019-05-09T02:13:14.594Z,99389.50
2019-05-09T02:13:39.193Z,99394.42
2019-05-09T02:14:04.215Z,99390.36
2019-05-09T02:14:36.436Z,99391.36
2019-05-09T02:15:03.915Z,99395.77
2019-05-09T02:15:47.014Z,99394.42
2019-05-09T02:16:29.707Z,99393.92
2019-05-09T02:17:03.244Z,99401.18
2019-05-09T02:17:29.627Z,99402.17
2019-05-09T02:18:04.263Z,99394.72
2019-05-09T02:18:26.873Z,99399.64
2019-05-09T02:18:53.502Z,99394.36
2019-05-09T02:19:24.078Z,99402.47
2019-05-09T02:19:48.908Z,99401.13
2019-05-09T02:20:14.691Z,99397.06
2019-05-09T02:20:39.283Z,99402.61
2019-05-09T02:21:04.185Z,99398.05
2019-05-09T02:21:28.835Z,99399.05
2019-05-09T02:21:53.418Z,99399.05
2019-05-09T02:22:34.462Z,99399.05
2019-05-09T02:22:59.549Z,99400.77
2019-05-09T02:23:24.154Z,99396.34
2019-05-09T02:23:48.753Z,99399.41
2019-05-09T02:24:14.204Z,99394.50
2019-05-09T02:24:40.492Z,99399.91
2019-05-09T02:25:09.515Z,99399.41
2019-05-09T02:25:34.103Z,99404.81
2019-05-09T02:25:58.836Z,99400.40
2019-05-09T02:26:24.035Z,99402.78
2019-05-09T02:26:48.865Z,99401.75
2019-05-09T02:27:14.628Z,99401.75
2019-05-09T02:27:39.308Z,99397.70
2019-05-09T02:28:03.981Z,99405.67
2019-05-09T02:28:29.382Z,99400.77
2019-05-09T02:28:54.042Z,99405.18
2019-05-09T02:29:18.624Z,99407.52
2019-05-09T02:29:43.988Z,99402.61
2019-05-09T02:30:11.706Z,99401.62
2019-05-09T02:30:37.024Z,99403.83
2019-05-09T02:31:05.066Z,99398.05
2019-05-09T02:31:28.030Z,99405.67
2019-05-09T02:31:54.670Z,99402.97
2019-05-09T02:32:19.046Z,99406.53
2019-05-09T02:32:45.087Z,99405.31
2019-05-09T02:33:10.053Z,99405.18
2019-05-09T02:33:35.037Z,99398.05
2019-05-09T02:33:59.810Z,99401.62
2019-05-09T02:34:25.073Z,99402.11
2019-05-09T02:34:49.801Z,99402.97
2019-05-09T02:35:14.983Z,99394.86
2019-05-09T02:35:50.972Z,99398.42
2019-05-09T02:36:05.893Z,99401.13
2019-05-09T02:36:30.540Z,99402.47
2019-05-09T02:36:58.425Z,99397.56
2019-05-09T02:37:21.494Z,99405.54
2019-05-09T02:37:49.575Z,99398.42
2019-05-09T02:38:12.463Z,99396.70
2019-05-09T02:38:39.229Z,99393.87
2019-05-09T02:39:03.641Z,99397.06
2019-05-09T02:39:29.395Z,99396.56
2019-05-09T02:39:54.238Z,99398.42
2019-05-09T02:40:19.029Z,99399.77
2019-05-09T02:40:43.765Z,99394.36
2019-05-09T02:41:08.720Z,99395.72
2019-05-09T02:41:33.622Z,99394.86
2019-05-09T02:42:08.451Z,99392.65
2019-05-09T02:42:28.231Z,99392.65
2019-05-09T02:42:52.963Z,99398.05
2019-05-09T02:43:18.666Z,99392.81
2019-05-09T02:43:43.509Z,99393.64
2019-05-09T02:44:09.290Z,99394.66
2019-05-09T02:44:34.251Z,99394.66
2019-05-09T02:44:59.547Z,99394.17
2019-05-09T02:45:28.415Z,99391.96
2019-05-09T02:45:59.395Z,99391.96
2019-05-09T02:46:30.697Z,99396.88
2019-05-09T02:47:02.945Z,99396.02
2019-05-09T02:47:28.963Z,99396.88
2019-05-09T02:47:53.894Z,99396.02
2019-05-09T02:48:18.772Z,99399.34
2019-05-09T02:48:43.442Z,99394.30
2019-05-09T02:49:09.022Z,99397.50
2019-05-09T02:49:33.822Z,99393.94
2019-05-09T02:49:59.140Z,99391.23
2019-05-09T02:50:23.961Z,99398.00
2019-05-09T02:50:48.808Z,99395.30
2019-05-09T02:51:13.556Z,99392.09
2019-05-09T02:51:38.874Z,99394.80
2019-05-09T02:52:03.736Z,99388.89
2019-05-09T02:52:28.948Z,99394.30
2019-05-09T02:52:53.601Z,99398.36
2019-05-09T02:53:19.075Z,99391.23
2019-05-09T02:53:43.890Z,99391.23
2019-05-09T02:54:09.977Z,99389.88
2019-05-09T02:54:34.813Z,99397.01
2019-05-09T02:54:59.455Z,99397.01
2019-05-09T02:55:24.100Z,99397.01
2019-05-09T02:55:49.652Z,99390.25
2019-05-09T02:56:18.507Z,99388.39
2019-05-09T02:56:41.641Z,99394.30
2019-05-09T02:57:09.275Z,99401.06
2019-05-09T02:57:32.645Z,99390.74
2019-05-09T02:57:59.236Z,99392.09
2019-05-09T02:58:28.131Z,99394.30
2019-05-09T02:59:05.560Z,99392.09
2019-05-09T02:59:34.934Z,99397.50
2019-05-09T03:00:08.656Z,99393.94
2019-05-09T03:00:44.216Z,99393.61
2019-05-09T03:01:10.451Z,99398.00
2019-05-09T03:01:45.587Z,99400.38
2019-05-09T03:02:28.918Z,99399.52
2019-05-09T03:02:55.365Z,99397.80
2019-05-09T03:03:24.121Z,99407.41
2019-05-09T03:03:48.781Z,99403.02
2019-05-09T03:04:13.983Z,99404.01
2019-05-09T03:04:39.204Z,99399.09
2019-05-09T03:05:04.654Z,99402.79
2019-05-09T03:05:29.875Z,99406.84
2019-05-09T03:05:54.729Z,99405.36
2019-05-09T03:06:19.822Z,99403.64
2019-05-09T03:06:44.560Z,99405.00
2019-05-09T03:07:09.861Z,99408.06
2019-05-09T03:07:50.007Z,99401.80
2019-05-09T03:08:14.639Z,99407.20
2019-05-09T03:08:39.206Z,99404.37
2019-05-09T03:09:05.051Z,99400.94
2019-05-09T03:09:29.736Z,99407.20
2019-05-09T03:09:54.360Z,99401.44
2019-05-09T03:10:22.301Z,99403.15
2019-05-09T03:10:48.943Z,99404.50
2019-05-09T03:11:13.931Z,99403.64
2019-05-09T03:11:39.020Z,99405.36
2019-05-09T03:12:20.993Z,99406.71
2019-05-09T03:12:35.430Z,99402.66
2019-05-09T03:12:59.216Z,99411.27
2019-05-09T03:13:22.752Z,99406.34
2019-05-09T03:13:49.593Z,99408.56
2019-05-09T03:14:13.933Z,99404.01
2019-05-09T03:14:38.707Z,99402.66
2019-05-09T03:15:03.970Z,99399.59
2019-05-09T03:15:29.356Z,99403.15
2019-05-09T03:15:58.584Z,99394.55
2019-05-09T03:16:22.267Z,99404.01
2019-05-09T03:16:49.127Z,99397.25
2019-05-09T03:17:13.899Z,99402.66
2019-05-09T03:17:38.722Z,99400.31
2019-05-09T03:18:03.522Z,99403.52
2019-05-09T03:18:28.713Z,99404.01
2019-05-09T03:18:53.409Z,99397.61
2019-05-09T03:19:19.360Z,99393.55
2019-05-09T03:19:44.538Z,99400.64
2019-05-09T03:20:10.838Z,99404.37
2019-05-09T03:20:49.502Z,99408.75
2019-05-09T03:21:19.309Z,99401.66
2019-05-09T03:21:45.712Z,99403.84
2019-05-09T03:22:12.000Z,99402.16
2019-05-09T03:22:39.445Z,99405.72
2019-05-09T03:23:02.991Z,99405.36
2019-05-09T03:23:28.593Z,99404.50
2019-05-09T03:23:53.507Z,99406.71
2019-05-09T03:24:18.611Z,99403.78
2019-05-09T03:24:43.494Z,99407.34
2019-05-09T03:25:08.974Z,99405.13
2019-05-09T03:25:34.008Z,99404.64
2019-05-09T03:25:59.104Z,99402.95
2019-05-09T03:26:25.603Z,99401.60
2019-05-09T03:26:54.603Z,99402.09
2019-05-09T03:27:28.762Z,99398.37
2019-05-09T03:28:00.403Z,99399.72
2019-05-09T03:28:44.913Z,99397.88
2019-05-09T03:29:19.957Z,99402.95
2019-05-09T03:29:48.964Z,99397.55
2019-05-09T03:30:14.178Z,99405.66
2019-05-09T03:30:50.225Z,99403.58
2019-05-09T03:31:19.708Z,99402.23
2019-05-09T03:31:43.526Z,99401.38
2019-05-09T03:32:09.420Z,99400.52
2019-05-09T03:32:34.194Z,99400.19
2019-05-09T03:32:59.602Z,99403.39
2019-05-09T03:33:24.598Z,99405.23
2019-05-09T03:33:50.058Z,99402.53
2019-05-09T03:34:15.120Z,99402.53
2019-05-09T03:34:39.710Z,99405.23
2019-05-09T03:35:05.776Z,99405.59
2019-05-09T03:35:30.411Z,99404.24
2019-05-09T03:35:57.296Z,99400.19
2019-05-09T03:36:21.366Z,99404.24
2019-05-09T03:36:47.673Z,99405.43
2019-05-09T03:37:12.403Z,99400.52
2019-05-09T03:37:37.826Z,99407.64
2019-05-09T03:38:07.860Z,99406.29
2019-05-09T03:38:32.068Z,99407.64
2019-05-09T03:38:57.869Z,99406.29
2019-05-09T03:39:22.598Z,99410.70
2019-05-09T03:39:47.792Z,99403.22
2019-05-09T03:40:12.493Z,99406.65
2019-05-09T03:40:37.900Z,99411.56
2019-05-09T03:41:02.600Z,99408.00
2019-05-09T03:41:28.231Z,99408.00
2019-05-09T03:41:53.060Z,99400.75
2019-05-09T03:42:21.388Z,99405.66
2019-05-09T03:42:44.093Z,99411.06
2019-05-09T03:43:08.675Z,99404.80
2019-05-09T03:43:33.309Z,99408.86
2019-05-09T03:43:58.561Z,99407.01
2019-05-09T03:44:23.399Z,99409.19
2019-05-09T03:44:48.095Z,99412.75
2019-05-09T03:45:14.363Z,99409.19
2019-05-09T03:45:40.598Z,99412.75
2019-05-09T03:46:09.652Z,99413.77
2019-05-09T03:46:38.268Z,99405.66
2019-05-09T03:47:03.840Z,99410.05
2019-05-09T03:47:30.120Z,99411.89
2019-05-09T03:47:58.272Z,99411.06
2019-05-09T03:48:28.378Z,99415.45
2019-05-09T03:48:54.982Z,99415.13
2019-05-09T03:49:21.277Z,99404.30
2019-05-09T03:49:47.697Z,99406.65
2019-05-09T03:50:14.168Z,99409.35
2019-05-09T03:50:38.855Z,99413.05
2019-05-09T03:51:03.475Z,99410.84
2019-05-09T03:51:28.093Z,99409.98
2019-05-09T03:51:52.729Z,99405.06
2019-05-09T03:52:17.819Z,99409.48
2019-05-09T03:52:42.457Z,99408.63
2019-05-09T03:53:08.394Z,99407.14
2019-05-09T03:53:33.145Z,99401.38
2019-05-09T03:53:57.792Z,99402.72
2019-05-09T03:54:22.393Z,99407.64
2019-05-09T03:54:47.705Z,99408.13
2019-05-09T03:55:14.080Z,99404.58
2019-05-09T03:55:38.727Z,99405.92
2019-05-09T03:56:04.984Z,99406.29
2019-05-09T03:56:34.251Z,99412.06
2019-05-09T03:57:00.477Z,99409.48
2019-05-09T03:57:28.309Z,99407.77
2019-05-09T03:57:54.715Z,99411.70
2019-05-09T03:58:20.723Z,99410.34
2019-05-09T03:58:47.393Z,99407.28
2019-05-09T03:59:11.799Z,99411.83
2019-05-09T03:59:38.112Z,99412.36
2019-05-09T04:00:03.267Z,99405.59
2019-05-09T04:00:28.419Z,99411.00
2019-05-09T04:00:53.132Z,99407.77
2019-05-09T04:01:17.811Z,99406.42
2019-05-09T04:01:42.433Z,99407.44
2019-05-09T04:02:09.993Z,99406.95
2019-05-09T04:02:33.364Z,99409.29
2019-05-09T04:02:58.216Z,99408.80
2019-05-09T04:03:22.831Z,99411.99
2019-05-09T04:03:48.149Z,99410.14
2019-05-09T04:04:14.046Z,99399.33
2019-05-09T04:04:38.665Z,99407.94
2019-05-09T04:05:03.607Z,99408.30
2019-05-09T04:05:28.223Z,99406.59
2019-05-09T04:05:59.226Z,99412.36
2019-05-09T04:06:19.228Z,99412.36
2019-05-09T04:06:43.913Z,99413.70
2019-05-09T04:07:08.587Z,99412.36
2019-05-09T04:07:33.251Z,99413.34
2019-05-09T04:07:59.577Z,99414.70
2019-05-09T04:08:24.193Z,99416.55
2019-05-09T04:08:48.824Z,99414.34
2019-05-09T04:09:14.053Z,99412.13
2019-05-09T04:09:39.738Z,99413.12
2019-05-09T04:10:07.765Z,99418.52
2019-05-09T04:10:32.592Z,99413.64
2019-05-09T04:10:58.633Z,99415.00
2019-05-09T04:11:23.494Z,99413.64
2019-05-09T04:11:48.628Z,99424.09
2019-05-09T04:12:14.054Z,99420.53
2019-05-09T04:12:52.811Z,99416.98
2019-05-09T04:13:04.997Z,99417.47
2019-05-09T04:13:31.319Z,99411.56
2019-05-09T04:14:03.720Z,99414.08
2019-05-09T04:14:30.001Z,99410.88
2019-05-09T04:14:54.619Z,99413.58
2019-05-09T04:15:19.289Z,99421.33
2019-05-09T04:15:43.902Z,99410.52
2019-05-09T04:16:08.545Z,99419.61
2019-05-09T04:16:33.142Z,99412.16
2019-05-09T04:16:57.770Z,99418.42
2019-05-09T04:17:24.031Z,99418.92
2019-05-09T04:17:48.652Z,99413.16
2019-05-09T04:18:14.053Z,99414.87
2019-05-09T04:18:40.279Z,99418.92
2019-05-09T04:19:05.073Z,99418.06
2019-05-09T04:19:29.685Z,99420.77
2019-05-09T04:19:54.356Z,99414.50
2019-05-09T04:20:19.003Z,99420.27
2019-05-09T04:20:43.627Z,99417.56
2019-05-09T04:21:08.546Z,99416.22
2019-05-09T04:21:33.224Z,99420.27
2019-05-09T04:21:57.839Z,99424.33
2019-05-09T04:22:22.537Z,99420.59
2019-05-09T04:22:48.988Z,99420.59
2019-05-09T04:23:14.129Z,99422.48
2019-05-09T04:23:39.075Z,99425.02
2019-05-09T04:24:03.708Z,99423.67
2019-05-09T04:24:28.893Z,99426.37
2019-05-09T04:24:53.503Z,99424.03
2019-05-09T04:25:19.806Z,99425.38
2019-05-09T04:25:48.811Z,99428.77
2019-05-09T04:26:17.626Z,99423.37
2019-05-09T04:26:44.007Z,99429.14
2019-05-09T04:27:12.977Z,99430.85
2019-05-09T04:27:37.881Z,99424.59
2019-05-09T04:28:03.625Z,99426.30
2019-05-09T04:28:29.893Z,99430.36
2019-05-09T04:28:54.493Z,99424.45
2019-05-09T04:29:19.231Z,99424.45
2019-05-09T04:29:43.831Z,99425.81
2019-05-09T04:30:09.567Z,99430.20
2019-05-09T04:30:34.365Z,99427.16
2019-05-09T04:30:58.947Z,99427.85
2019-05-09T04:31:23.718Z,99430.56
2019-05-09T04:31:48.496Z,99432.27
2019-05-09T04:32:14.089Z,99432.27
2019-05-09T04:32:38.709Z,99429.56
2019-05-09T04:33:03.336Z,99438.86
2019-05-09T04:33:28.112Z,99431.11
2019-05-09T04:33:52.751Z,99430.98
2019-05-09T04:34:18.320Z,99439.45
2019-05-09T04:34:43.074Z,99433.02
2019-05-09T04:35:08.162Z,99432.03
2019-05-09T04:35:32.826Z,99437.80
2019-05-09T04:35:58.029Z,99430.55
2019-05-09T04:36:24.433Z,99437.51
2019-05-09T04:36:49.065Z,99432.09
2019-05-09T04:37:14.164Z,99431.11
2019-05-09T04:37:38.798Z,99430.95
2019-05-09T04:38:03.412Z,99428.23
2019-05-09T04:38:28.070Z,99433.52
2019-05-09T04:38:52.708Z,99437.93
2019-05-09T04:39:21.612Z,99438.63
2019-05-09T04:39:43.666Z,99434.20
2019-05-09T04:40:08.373Z,99432.72
2019-05-09T04:40:37.671Z,99433.44
2019-05-09T04:40:59.330Z,99429.38
2019-05-09T04:41:25.388Z,99434.98
2019-05-09T04:41:50.156Z,99435.67
2019-05-09T04:42:14.777Z,99427.07
2019-05-09T04:42:43.054Z,99434.05
2019-05-09T04:43:14.036Z,99434.91
2019-05-09T04:43:36.679Z,99428.48
2019-05-09T04:44:00.010Z,99435.11
2019-05-09T04:44:28.307Z,99433.09
2019-05-09T04:44:57.670Z,99430.75
2019-05-09T04:45:40.262Z,99432.47
2019-05-09T04:46:01.995Z,99434.50
2019-05-09T04:46:27.713Z,99425.76
2019-05-09T04:46:54.114Z,99433.38
2019-05-09T04:47:18.794Z,99430.50
2019-05-09T04:47:43.653Z,99434.92
2019-05-09T04:48:13.189Z,99433.58
2019-05-09T04:48:37.629Z,99433.44
2019-05-09T04:49:02.781Z,99437.33
2019-05-09T04:49:29.793Z,99428.88
2019-05-09T04:49:54.007Z,99430.92
2019-05-09T04:50:23.481Z,99431.78
2019-05-09T04:50:44.988Z,99432.14
2019-05-09T04:51:09.597Z,99427.59
2019-05-09T04:51:34.237Z,99440.09
2019-05-09T04:51:58.860Z,99435.17
2019-05-09T04:52:23.495Z,99436.03
2019-05-09T04:52:48.138Z,99441.80
2019-05-09T04:53:12.776Z,99441.80
2019-05-09T04:53:39.794Z,99441.80
2019-05-09T04:54:04.185Z,99436.39
2019-05-09T04:54:28.822Z,99436.78
2019-05-09T04:54:53.448Z,99441.80
2019-05-09T04:55:18.473Z,99439.49
2019-05-09T04:55:43.058Z,99446.25
2019-05-09T04:56:17.389Z,99438.50
2019-05-09T04:56:43.138Z,99447.44
2019-05-09T04:57:08.049Z,99440.67
2019-05-09T04:57:32.720Z,99443.38
2019-05-09T04:58:00.123Z,99443.91
2019-05-09T04:58:23.686Z,99442.20
2019-05-09T04:58:48.376Z,99447.11
2019-05-09T04:59:13.022Z,99444.91
2019-05-09T04:59:37.636Z,99442.66
2019-05-09T05:00:02.328Z,99444.91
2019-05-09T05:00:28.592Z,99448.07
2019-05-09T05:01:10.094Z,99443.16
2019-05-09T05:01:38.761Z,99445.50
2019-05-09T05:02:04.365Z,99447.22
2019-05-09T05:02:43.010Z,99450.31
2019-05-09T05:03:08.022Z,99447.71
2019-05-09T05:03:33.122Z,99450.06
2019-05-09T05:03:58.508Z,99448.88
2019-05-09T05:04:24.412Z,99453.78
2019-05-09T05:04:49.010Z,99450.59
2019-05-09T05:05:14.468Z,99453.29
2019-05-09T05:05:40.134Z,99445.80
2019-05-09T05:06:04.856Z,99455.64
2019-05-09T05:06:29.535Z,99451.22
2019-05-09T05:06:54.127Z,99453.42